Terminal Aerodrome Forecast
Issued by NWS

Home | Current Version | Previous Version | Text Only | Print | Product List | Glossary On
Versions: 1 2 3 4 5 6 7 8 9 10 11 12 13 14 15 16 17 18 19 20 21 22 23
000
FTUS41 KALY 212300 CCA
TAFPSF
TAF COR
KPSF 212341Z 2200/2224 28010KT P6SM SKC
     FM220200 27006KT P6SM SKC
     FM220800 25005KT P6SM SCT250
     FM221300 26006KT P6SM SCT120 BKN250
     FM221600 22008KT P6SM BKN120
     FM222200 22010KT P6SM VCSH OVC040=

USA.gov is the U.S. government's official web portal to all federal, state and local government web resources and services.